sensor_id;sensor_type;location;lat;lon;timestamp;P1;durP1;ratioP1;P2;durP2;ratioP2
52368;SDS011;38298;50.346;3.526;2023-02-15T00:01:12;66.07;;;27.50;;
52368;SDS011;38298;50.346;3.526;2023-02-15T00:03:38;60.63;;;26.10;;
52368;SDS011;38298;50.346;3.526;2023-02-15T00:06:04;64.72;;;25.42;;
52368;SDS011;38298;50.346;3.526;2023-02-15T00:08:31;62.90;;;25.15;;
52368;SDS011;38298;50.346;3.526;2023-02-15T00:11:06;57.60;;;25.15;;
52368;SDS011;38298;50.346;3.526;2023-02-15T00:13:33;59.63;;;24.77;;
52368;SDS011;38298;50.346;3.526;2023-02-15T00:16:03;64.60;;;25.88;;
52368;SDS011;38298;50.346;3.526;2023-02-15T00:18:30;56.77;;;25.03;;
52368;SDS011;38298;50.346;3.526;2023-02-15T00:20:56;57.58;;;24.17;;
52368;SDS011;38298;50.346;3.526;2023-02-15T00:23:22;58.47;;;24.52;;
52368;SDS011;38298;50.346;3.526;2023-02-15T00:25:48;68.43;;;25.83;;
52368;SDS011;38298;50.346;3.526;2023-02-15T00:28:15;61.40;;;26.08;;
52368;SDS011;38298;50.346;3.526;2023-02-15T00:30:41;59.47;;;24.58;;
52368;SDS011;38298;50.346;3.526;2023-02-15T00:33:07;60.70;;;24.45;;
52368;SDS011;38298;50.346;3.526;2023-02-15T00:35:33;60.92;;;25.58;;
52368;SDS011;38298;50.346;3.526;2023-02-15T00:37:59;64.78;;;24.92;;
52368;SDS011;38298;50.346;3.526;2023-02-15T00:40:25;62.17;;;25.05;;
52368;SDS011;38298;50.346;3.526;2023-02-15T00:42:51;59.53;;;24.63;;
52368;SDS011;38298;50.346;3.526;2023-02-15T00:45:17;59.25;;;25.08;;
52368;SDS011;38298;50.346;3.526;2023-02-15T00:47:44;62.17;;;24.85;;
52368;SDS011;38298;50.346;3.526;2023-02-15T00:50:10;57.63;;;23.73;;
52368;SDS011;38298;50.346;3.526;2023-02-15T00:52:36;57.60;;;23.60;;
52368;SDS011;38298;50.346;3.526;2023-02-15T00:55:02;54.03;;;23.23;;
52368;SDS011;38298;50.346;3.526;2023-02-15T00:57:28;59.42;;;24.35;;
52368;SDS011;38298;50.346;3.526;2023-02-15T00:59:54;59.55;;;24.60;;
52368;SDS011;38298;50.346;3.526;2023-02-15T01:02:20;56.42;;;24.23;;
52368;SDS011;38298;50.346;3.526;2023-02-15T01:04:46;58.33;;;24.67;;
52368;SDS011;38298;50.346;3.526;2023-02-15T01:07:12;55.15;;;23.60;;
52368;SDS011;38298;50.346;3.526;2023-02-15T01:09:38;57.25;;;23.35;;
52368;SDS011;38298;50.346;3.526;2023-02-15T01:12:04;56.80;;;24.30;;
52368;SDS011;38298;50.346;3.526;2023-02-15T01:14:30;52.35;;;22.65;;
52368;SDS011;38298;50.346;3.526;2023-02-15T01:16:56;56.83;;;22.23;;
52368;SDS011;38298;50.346;3.526;2023-02-15T01:19:22;60.08;;;23.38;;
52368;SDS011;38298;50.346;3.526;2023-02-15T01:21:48;54.60;;;22.85;;
52368;SDS011;38298;50.346;3.526;2023-02-15T01:24:14;55.13;;;23.05;;
52368;SDS011;38298;50.346;3.526;2023-02-15T01:26:40;55.78;;;23.02;;
52368;SDS011;38298;50.346;3.526;2023-02-15T01:29:06;53.15;;;23.27;;
52368;SDS011;38298;50.346;3.526;2023-02-15T01:31:32;54.72;;;23.25;;
52368;SDS011;38298;50.346;3.526;2023-02-15T01:33:58;55.83;;;23.17;;
52368;SDS011;38298;50.346;3.526;2023-02-15T01:36:25;61.70;;;22.50;;
52368;SDS011;38298;50.346;3.526;2023-02-15T01:38:51;58.38;;;23.23;;
52368;SDS011;38298;50.346;3.526;2023-02-15T01:41:17;53.75;;;23.77;;
52368;SDS011;38298;50.346;3.526;2023-02-15T01:43:58;53.08;;;22.67;;
52368;SDS011;38298;50.346;3.526;2023-02-15T01:46:26;59.25;;;23.30;;
52368;SDS011;38298;50.346;3.526;2023-02-15T01:48:57;59.53;;;23.73;;
52368;SDS011;38298;50.346;3.526;2023-02-15T01:51:25;60.20;;;23.55;;
52368;SDS011;38298;50.346;3.526;2023-02-15T01:54:01;61.38;;;23.90;;
52368;SDS011;38298;50.346;3.526;2023-02-15T01:56:29;60.90;;;23.50;;
52368;SDS011;38298;50.346;3.526;2023-02-15T01:58:57;56.65;;;22.65;;
52368;SDS011;38298;50.346;3.526;2023-02-15T02:01:24;57.13;;;23.38;;
52368;SDS011;38298;50.346;3.526;2023-02-15T02:06:36;57.85;;;23.33;;
52368;SDS011;38298;50.346;3.526;2023-02-15T02:09:03;59.17;;;23.67;;
52368;SDS011;38298;50.346;3.526;2023-02-15T02:11:29;61.65;;;24.63;;
52368;SDS011;38298;50.346;3.526;2023-02-15T02:13:55;53.47;;;22.27;;
52368;SDS011;38298;50.346;3.526;2023-02-15T02:18:51;60.67;;;24.17;;
52368;SDS011;38298;50.346;3.526;2023-02-15T02:26:44;59.08;;;23.70;;
52368;SDS011;38298;50.346;3.526;2023-02-15T02:29:21;64.20;;;24.07;;
52368;SDS011;38298;50.346;3.526;2023-02-15T02:34:45;58.35;;;23.52;;
52368;SDS011;38298;50.346;3.526;2023-02-15T02:37:19;55.53;;;22.67;;
52368;SDS011;38298;50.346;3.526;2023-02-15T02:44:57;57.55;;;23.92;;
52368;SDS011;38298;50.346;3.526;2023-02-15T02:49:59;69.63;;;25.73;;
52368;SDS011;38298;50.346;3.526;2023-02-15T02:54:51;59.45;;;23.75;;
52368;SDS011;38298;50.346;3.526;2023-02-15T02:57:17;63.38;;;26.05;;
52368;SDS011;38298;50.346;3.526;2023-02-15T02:59:44;63.42;;;24.33;;
52368;SDS011;38298;50.346;3.526;2023-02-15T03:02:23;61.83;;;25.38;;
52368;SDS011;38298;50.346;3.526;2023-02-15T03:04:52;56.95;;;24.08;;
52368;SDS011;38298;50.346;3.526;2023-02-15T03:07:23;59.58;;;23.17;;
52368;SDS011;38298;50.346;3.526;2023-02-15T03:09:51;59.15;;;24.20;;
52368;SDS011;38298;50.346;3.526;2023-02-15T03:12:19;59.25;;;22.95;;
52368;SDS011;38298;50.346;3.526;2023-02-15T03:14:47;57.28;;;23.40;;
52368;SDS011;38298;50.346;3.526;2023-02-15T03:17:14;56.75;;;23.33;;
52368;SDS011;38298;50.346;3.526;2023-02-15T03:19:42;61.47;;;24.48;;
52368;SDS011;38298;50.346;3.526;2023-02-15T03:27:18;59.92;;;24.85;;
52368;SDS011;38298;50.346;3.526;2023-02-15T03:29:46;59.80;;;24.38;;
52368;SDS011;38298;50.346;3.526;2023-02-15T03:32:14;54.92;;;22.95;;
52368;SDS011;38298;50.346;3.526;2023-02-15T03:34:41;61.50;;;24.77;;
52368;SDS011;38298;50.346;3.526;2023-02-15T03:42:26;54.50;;;24.65;;
52368;SDS011;38298;50.346;3.526;2023-02-15T03:44:58;54.38;;;22.73;;
52368;SDS011;38298;50.346;3.526;2023-02-15T03:47:26;63.15;;;26.33;;
52368;SDS011;38298;50.346;3.526;2023-02-15T03:49:59;60.03;;;24.27;;
52368;SDS011;38298;50.346;3.526;2023-02-15T03:52:27;68.53;;;27.52;;
52368;SDS011;38298;50.346;3.526;2023-02-15T03:54:54;64.97;;;25.73;;
52368;SDS011;38298;50.346;3.526;2023-02-15T03:57:24;57.40;;;24.05;;
52368;SDS011;38298;50.346;3.526;2023-02-15T04:03:18;62.58;;;26.38;;
52368;SDS011;38298;50.346;3.526;2023-02-15T04:05:44;60.63;;;25.48;;
52368;SDS011;38298;50.346;3.526;2023-02-15T04:08:11;60.42;;;24.83;;
52368;SDS011;38298;50.346;3.526;2023-02-15T04:10:37;68.65;;;25.00;;
52368;SDS011;38298;50.346;3.526;2023-02-15T04:13:20;58.63;;;24.38;;
52368;SDS011;38298;50.346;3.526;2023-02-15T04:15:47;54.13;;;24.45;;
52368;SDS011;38298;50.346;3.526;2023-02-15T04:18:32;63.08;;;25.98;;
52368;SDS011;38298;50.346;3.526;2023-02-15T04:21:17;60.13;;;24.77;;
52368;SDS011;38298;50.346;3.526;2023-02-15T04:24:02;56.80;;;25.00;;
52368;SDS011;38298;50.346;3.526;2023-02-15T04:26:47;61.22;;;25.08;;
52368;SDS011;38298;50.346;3.526;2023-02-15T04:29:14;61.65;;;24.92;;
52368;SDS011;38298;50.346;3.526;2023-02-15T04:31:40;62.97;;;24.45;;
52368;SDS011;38298;50.346;3.526;2023-02-15T04:34:07;60.85;;;24.10;;
52368;SDS011;38298;50.346;3.526;2023-02-15T04:36:33;67.63;;;26.73;;
52368;SDS011;38298;50.346;3.526;2023-02-15T04:38:59;64.88;;;25.08;;
52368;SDS011;38298;50.346;3.526;2023-02-15T04:41:25;59.97;;;24.30;;
52368;SDS011;38298;50.346;3.526;2023-02-15T04:43:51;61.78;;;26.05;;
52368;SDS011;38298;50.346;3.526;2023-02-15T04:46:18;64.30;;;25.45;;
52368;SDS011;38298;50.346;3.526;2023-02-15T04:48:44;60.83;;;25.45;;
52368;SDS011;38298;50.346;3.526;2023-02-15T04:51:10;64.15;;;26.85;;
52368;SDS011;38298;50.346;3.526;2023-02-15T04:53:36;63.92;;;27.00;;
52368;SDS011;38298;50.346;3.526;2023-02-15T04:56:02;65.03;;;27.15;;
52368;SDS011;38298;50.346;3.526;2023-02-15T04:58:28;62.25;;;26.58;;
52368;SDS011;38298;50.346;3.526;2023-02-15T05:00:55;61.00;;;25.75;;
52368;SDS011;38298;50.346;3.526;2023-02-15T05:03:21;56.72;;;25.27;;
52368;SDS011;38298;50.346;3.526;2023-02-15T05:05:47;59.83;;;25.05;;
52368;SDS011;38298;50.346;3.526;2023-02-15T05:08:13;64.75;;;26.65;;
52368;SDS011;38298;50.346;3.526;2023-02-15T05:10:39;57.00;;;24.73;;
52368;SDS011;38298;50.346;3.526;2023-02-15T05:13:05;58.55;;;25.08;;
52368;SDS011;38298;50.346;3.526;2023-02-15T05:15:31;58.13;;;24.52;;
52368;SDS011;38298;50.346;3.526;2023-02-15T05:17:58;58.35;;;25.20;;
52368;SDS011;38298;50.346;3.526;2023-02-15T05:20:24;64.15;;;25.23;;
52368;SDS011;38298;50.346;3.526;2023-02-15T05:22:53;51.25;;;23.80;;
52368;SDS011;38298;50.346;3.526;2023-02-15T05:25:19;57.67;;;24.17;;
52368;SDS011;38298;50.346;3.526;2023-02-15T05:28:04;53.63;;;23.58;;
52368;SDS011;38298;50.346;3.526;2023-02-15T05:30:46;54.28;;;23.63;;
52368;SDS011;38298;50.346;3.526;2023-02-15T05:33:12;58.17;;;23.48;;
52368;SDS011;38298;50.346;3.526;2023-02-15T05:35:38;57.22;;;22.92;;
52368;SDS011;38298;50.346;3.526;2023-02-15T05:38:04;58.92;;;23.65;;
52368;SDS011;38298;50.346;3.526;2023-02-15T05:40:30;57.38;;;22.42;;
52368;SDS011;38298;50.346;3.526;2023-02-15T05:42:56;64.10;;;24.92;;
52368;SDS011;38298;50.346;3.526;2023-02-15T05:45:23;62.80;;;23.65;;
52368;SDS011;38298;50.346;3.526;2023-02-15T05:47:49;60.63;;;24.45;;
52368;SDS011;38298;50.346;3.526;2023-02-15T05:50:15;55.88;;;22.80;;
52368;SDS011;38298;50.346;3.526;2023-02-15T05:52:47;61.97;;;23.70;;
52368;SDS011;38298;50.346;3.526;2023-02-15T05:55:13;60.30;;;23.63;;
52368;SDS011;38298;50.346;3.526;2023-02-15T05:57:39;53.88;;;23.08;;
52368;SDS011;38298;50.346;3.526;2023-02-15T06:00:06;57.60;;;23.17;;
52368;SDS011;38298;50.346;3.526;2023-02-15T06:02:33;63.13;;;23.70;;
52368;SDS011;38298;50.346;3.526;2023-02-15T06:05:00;60.83;;;22.80;;
52368;SDS011;38298;50.346;3.526;2023-02-15T06:07:26;55.53;;;22.73;;
52368;SDS011;38298;50.346;3.526;2023-02-15T06:09:52;58.05;;;23.23;;
52368;SDS011;38298;50.346;3.526;2023-02-15T06:12:18;57.17;;;22.23;;
52368;SDS011;38298;50.346;3.526;2023-02-15T06:14:44;58.17;;;22.98;;
52368;SDS011;38298;50.346;3.526;2023-02-15T06:17:10;52.42;;;21.63;;
52368;SDS011;38298;50.346;3.526;2023-02-15T06:19:36;60.47;;;22.88;;
52368;SDS011;38298;50.346;3.526;2023-02-15T06:22:02;58.45;;;23.73;;
52368;SDS011;38298;50.346;3.526;2023-02-15T06:24:28;56.05;;;22.60;;
52368;SDS011;38298;50.346;3.526;2023-02-15T06:26:54;58.67;;;22.40;;
52368;SDS011;38298;50.346;3.526;2023-02-15T06:29:20;55.50;;;23.23;;
52368;SDS011;38298;50.346;3.526;2023-02-15T06:31:46;56.35;;;22.70;;
52368;SDS011;38298;50.346;3.526;2023-02-15T06:34:12;59.65;;;23.58;;
52368;SDS011;38298;50.346;3.526;2023-02-15T06:36:38;58.88;;;22.63;;
52368;SDS011;38298;50.346;3.526;2023-02-15T06:39:04;61.00;;;24.23;;
52368;SDS011;38298;50.346;3.526;2023-02-15T06:41:31;57.42;;;22.25;;
52368;SDS011;38298;50.346;3.526;2023-02-15T06:43:57;52.20;;;22.35;;
52368;SDS011;38298;50.346;3.526;2023-02-15T06:46:23;55.50;;;22.90;;
52368;SDS011;38298;50.346;3.526;2023-02-15T06:48:49;57.30;;;22.25;;
52368;SDS011;38298;50.346;3.526;2023-02-15T06:51:15;53.38;;;22.27;;
52368;SDS011;38298;50.346;3.526;2023-02-15T06:53:41;48.22;;;19.77;;
52368;SDS011;38298;50.346;3.526;2023-02-15T06:56:08;48.10;;;20.23;;
52368;SDS011;38298;50.346;3.526;2023-02-15T06:58:38;55.45;;;21.55;;
52368;SDS011;38298;50.346;3.526;2023-02-15T07:01:04;53.35;;;20.63;;
52368;SDS011;38298;50.346;3.526;2023-02-15T07:03:31;50.95;;;20.10;;
52368;SDS011;38298;50.346;3.526;2023-02-15T07:05:59;50.58;;;20.02;;
52368;SDS011;38298;50.346;3.526;2023-02-15T07:08:26;48.55;;;20.55;;
52368;SDS011;38298;50.346;3.526;2023-02-15T07:10:53;51.05;;;22.60;;
52368;SDS011;38298;50.346;3.526;2023-02-15T07:13:19;50.25;;;20.33;;
52368;SDS011;38298;50.346;3.526;2023-02-15T07:15:46;56.10;;;21.85;;
52368;SDS011;38298;50.346;3.526;2023-02-15T07:18:12;53.10;;;20.63;;
52368;SDS011;38298;50.346;3.526;2023-02-15T07:20:38;52.97;;;20.35;;
52368;SDS011;38298;50.346;3.526;2023-02-15T07:23:07;49.55;;;19.52;;
52368;SDS011;38298;50.346;3.526;2023-02-15T07:25:33;49.53;;;20.15;;
52368;SDS011;38298;50.346;3.526;2023-02-15T07:28:00;47.25;;;19.98;;
52368;SDS011;38298;50.346;3.526;2023-02-15T07:30:26;54.20;;;20.83;;
52368;SDS011;38298;50.346;3.526;2023-02-15T07:32:59;59.90;;;21.92;;
52368;SDS011;38298;50.346;3.526;2023-02-15T07:35:47;55.38;;;20.83;;
52368;SDS011;38298;50.346;3.526;2023-02-15T07:38:13;52.07;;;20.43;;
52368;SDS011;38298;50.346;3.526;2023-02-15T07:40:39;48.30;;;20.15;;
52368;SDS011;38298;50.346;3.526;2023-02-15T07:43:05;44.55;;;19.05;;
52368;SDS011;38298;50.346;3.526;2023-02-15T07:45:31;53.92;;;20.52;;
52368;SDS011;38298;50.346;3.526;2023-02-15T07:47:57;47.95;;;19.98;;
52368;SDS011;38298;50.346;3.526;2023-02-15T07:50:25;46.40;;;19.02;;
52368;SDS011;38298;50.346;3.526;2023-02-15T07:52:51;49.67;;;19.90;;
52368;SDS011;38298;50.346;3.526;2023-02-15T07:55:17;48.38;;;20.73;;
52368;SDS011;38298;50.346;3.526;2023-02-15T07:57:44;48.15;;;20.67;;
52368;SDS011;38298;50.346;3.526;2023-02-15T08:00:11;51.38;;;19.67;;
52368;SDS011;38298;50.346;3.526;2023-02-15T08:02:38;47.55;;;19.95;;
52368;SDS011;38298;50.346;3.526;2023-02-15T08:05:04;44.58;;;18.60;;
52368;SDS011;38298;50.346;3.526;2023-02-15T08:07:30;41.30;;;17.98;;
52368;SDS011;38298;50.346;3.526;2023-02-15T08:09:56;48.95;;;20.35;;
52368;SDS011;38298;50.346;3.526;2023-02-15T08:12:25;47.28;;;19.17;;
52368;SDS011;38298;50.346;3.526;2023-02-15T08:14:51;42.53;;;19.38;;
52368;SDS011;38298;50.346;3.526;2023-02-15T08:17:17;48.38;;;19.40;;
52368;SDS011;38298;50.346;3.526;2023-02-15T08:19:43;49.35;;;19.33;;
52368;SDS011;38298;50.346;3.526;2023-02-15T08:22:11;43.28;;;19.35;;
52368;SDS011;38298;50.346;3.526;2023-02-15T08:24:38;43.78;;;18.10;;
52368;SDS011;38298;50.346;3.526;2023-02-15T08:27:05;39.00;;;17.48;;
52368;SDS011;38298;50.346;3.526;2023-02-15T08:29:33;43.70;;;17.58;;
52368;SDS011;38298;50.346;3.526;2023-02-15T08:32:00;45.63;;;18.48;;
52368;SDS011;38298;50.346;3.526;2023-02-15T08:34:27;39.40;;;18.00;;
52368;SDS011;38298;50.346;3.526;2023-02-15T08:36:54;44.20;;;18.92;;
52368;SDS011;38298;50.346;3.526;2023-02-15T08:39:20;50.20;;;18.80;;
52368;SDS011;38298;50.346;3.526;2023-02-15T08:41:47;44.83;;;17.88;;
52368;SDS011;38298;50.346;3.526;2023-02-15T08:44:14;42.10;;;18.50;;
52368;SDS011;38298;50.346;3.526;2023-02-15T08:46:41;44.20;;;18.05;;
52368;SDS011;38298;50.346;3.526;2023-02-15T08:49:07;43.45;;;17.65;;
52368;SDS011;38298;50.346;3.526;2023-02-15T08:51:34;44.45;;;17.27;;
52368;SDS011;38298;50.346;3.526;2023-02-15T08:54:02;46.90;;;19.42;;
52368;SDS011;38298;50.346;3.526;2023-02-15T08:56:33;46.17;;;18.60;;
52368;SDS011;38298;50.346;3.526;2023-02-15T09:01:26;48.15;;;19.23;;
52368;SDS011;38298;50.346;3.526;2023-02-15T09:03:54;44.25;;;18.23;;
52368;SDS011;38298;50.346;3.526;2023-02-15T09:06:21;43.10;;;18.75;;
52368;SDS011;38298;50.346;3.526;2023-02-15T09:08:48;39.95;;;17.92;;
52368;SDS011;38298;50.346;3.526;2023-02-15T09:11:15;44.25;;;18.42;;
52368;SDS011;38298;50.346;3.526;2023-02-15T09:13:47;43.75;;;18.10;;
52368;SDS011;38298;50.346;3.526;2023-02-15T09:16:13;40.63;;;18.10;;
52368;SDS011;38298;50.346;3.526;2023-02-15T09:18:42;40.45;;;17.83;;
52368;SDS011;38298;50.346;3.526;2023-02-15T09:21:09;41.95;;;18.23;;
52368;SDS011;38298;50.346;3.526;2023-02-15T09:23:36;42.78;;;18.38;;
52368;SDS011;38298;50.346;3.526;2023-02-15T09:26:06;40.17;;;17.35;;
52368;SDS011;38298;50.346;3.526;2023-02-15T09:28:33;50.97;;;18.50;;
52368;SDS011;38298;50.346;3.526;2023-02-15T09:33:44;45.17;;;18.67;;
52368;SDS011;38298;50.346;3.526;2023-02-15T09:38:40;41.40;;;17.25;;
52368;SDS011;38298;50.346;3.526;2023-02-15T09:46:08;39.33;;;17.42;;
52368;SDS011;38298;50.346;3.526;2023-02-15T09:48:41;44.70;;;18.30;;
52368;SDS011;38298;50.346;3.526;2023-02-15T09:51:17;40.65;;;17.40;;
52368;SDS011;38298;50.346;3.526;2023-02-15T09:53:55;39.40;;;16.90;;
52368;SDS011;38298;50.346;3.526;2023-02-15T10:07:12;35.63;;;17.50;;
52368;SDS011;38298;50.346;3.526;2023-02-15T10:10:03;42.20;;;18.45;;
52368;SDS011;38298;50.346;3.526;2023-02-15T10:18:36;45.00;;;18.85;;
52368;SDS011;38298;50.346;3.526;2023-02-15T10:23:14;40.13;;;17.35;;
52368;SDS011;38298;50.346;3.526;2023-02-15T10:25:46;43.55;;;18.05;;
52368;SDS011;38298;50.346;3.526;2023-02-15T10:28:17;46.60;;;18.83;;
52368;SDS011;38298;50.346;3.526;2023-02-15T10:30:48;45.63;;;19.00;;
52368;SDS011;38298;50.346;3.526;2023-02-15T10:33:23;39.97;;;18.27;;
52368;SDS011;38298;50.346;3.526;2023-02-15T10:35:57;41.03;;;17.77;;
52368;SDS011;38298;50.346;3.526;2023-02-15T10:41:03;37.65;;;16.83;;
52368;SDS011;38298;50.346;3.526;2023-02-15T10:51:19;36.20;;;17.02;;
52368;SDS011;38298;50.346;3.526;2023-02-15T10:54:02;45.15;;;17.67;;
52368;SDS011;38298;50.346;3.526;2023-02-15T10:59:20;46.03;;;18.52;;
52368;SDS011;38298;50.346;3.526;2023-02-15T11:01:53;38.97;;;18.45;;
52368;SDS011;38298;50.346;3.526;2023-02-15T11:06:57;44.17;;;20.10;;
52368;SDS011;38298;50.346;3.526;2023-02-15T11:09:25;39.00;;;18.95;;
52368;SDS011;38298;50.346;3.526;2023-02-15T11:11:55;43.70;;;19.33;;
52368;SDS011;38298;50.346;3.526;2023-02-15T11:17:01;43.25;;;19.08;;
52368;SDS011;38298;50.346;3.526;2023-02-15T11:19:31;39.10;;;18.08;;
52368;SDS011;38298;50.346;3.526;2023-02-15T11:22:02;38.45;;;18.80;;
52368;SDS011;38298;50.346;3.526;2023-02-15T11:24:30;35.38;;;17.58;;
52368;SDS011;38298;50.346;3.526;2023-02-15T11:34:53;37.80;;;16.73;;
52368;SDS011;38298;50.346;3.526;2023-02-15T11:37:23;40.17;;;18.65;;
52368;SDS011;38298;50.346;3.526;2023-02-15T11:39:51;40.08;;;17.98;;
52368;SDS011;38298;50.346;3.526;2023-02-15T11:42:20;34.30;;;16.00;;
52368;SDS011;38298;50.346;3.526;2023-02-15T11:44:58;35.83;;;17.60;;
52368;SDS011;38298;50.346;3.526;2023-02-15T11:47:26;34.60;;;17.33;;
52368;SDS011;38298;50.346;3.526;2023-02-15T11:49:52;41.85;;;18.52;;
52368;SDS011;38298;50.346;3.526;2023-02-15T11:52:18;34.65;;;17.67;;
52368;SDS011;38298;50.346;3.526;2023-02-15T11:54:46;41.38;;;17.95;;
52368;SDS011;38298;50.346;3.526;2023-02-15T11:59:42;35.83;;;17.13;;
52368;SDS011;38298;50.346;3.526;2023-02-15T12:02:19;41.50;;;18.30;;
52368;SDS011;38298;50.346;3.526;2023-02-15T12:04:50;38.00;;;18.40;;
52368;SDS011;38298;50.346;3.526;2023-02-15T12:07:23;43.25;;;19.80;;
52368;SDS011;38298;50.346;3.526;2023-02-15T12:12:28;41.10;;;17.98;;
52368;SDS011;38298;50.346;3.526;2023-02-15T12:14:58;36.35;;;17.02;;
52368;SDS011;38298;50.346;3.526;2023-02-15T12:17:29;37.35;;;18.13;;
52368;SDS011;38298;50.346;3.526;2023-02-15T12:20:07;38.50;;;18.92;;
52368;SDS011;38298;50.346;3.526;2023-02-15T12:22:48;41.58;;;18.15;;
52368;SDS011;38298;50.346;3.526;2023-02-15T12:27:50;38.33;;;18.58;;
52368;SDS011;38298;50.346;3.526;2023-02-15T12:30:18;39.13;;;19.00;;
52368;SDS011;38298;50.346;3.526;2023-02-15T12:35:26;36.60;;;18.67;;
52368;SDS011;38298;50.346;3.526;2023-02-15T12:37:54;41.08;;;17.63;;
52368;SDS011;38298;50.346;3.526;2023-02-15T12:40:24;36.70;;;18.17;;
52368;SDS011;38298;50.346;3.526;2023-02-15T12:42:52;39.28;;;17.98;;
52368;SDS011;38298;50.346;3.526;2023-02-15T12:45:20;36.28;;;18.80;;
52368;SDS011;38298;50.346;3.526;2023-02-15T12:47:46;34.88;;;17.42;;
52368;SDS011;38298;50.346;3.526;2023-02-15T12:50:15;39.63;;;18.25;;
52368;SDS011;38298;50.346;3.526;2023-02-15T12:52:48;37.78;;;18.40;;
52368;SDS011;38298;50.346;3.526;2023-02-15T12:57:43;34.97;;;16.92;;
52368;SDS011;38298;50.346;3.526;2023-02-15T13:02:47;35.78;;;17.90;;
52368;SDS011;38298;50.346;3.526;2023-02-15T13:05:18;37.10;;;18.15;;
52368;SDS011;38298;50.346;3.526;2023-02-15T13:07:47;34.53;;;17.40;;
52368;SDS011;38298;50.346;3.526;2023-02-15T13:12:49;39.20;;;17.98;;
52368;SDS011;38298;50.346;3.526;2023-02-15T13:15:26;38.07;;;18.27;;
52368;SDS011;38298;50.346;3.526;2023-02-15T13:17:52;38.67;;;18.45;;
52368;SDS011;38298;50.346;3.526;2023-02-15T13:20:21;32.58;;;17.48;;
52368;SDS011;38298;50.346;3.526;2023-02-15T13:22:49;36.65;;;17.70;;
52368;SDS011;38298;50.346;3.526;2023-02-15T13:25:20;34.58;;;18.05;;
52368;SDS011;38298;50.346;3.526;2023-02-15T13:27:48;38.03;;;18.23;;
52368;SDS011;38298;50.346;3.526;2023-02-15T13:32:43;36.95;;;18.55;;
52368;SDS011;38298;50.346;3.526;2023-02-15T13:35:14;36.20;;;18.27;;
52368;SDS011;38298;50.346;3.526;2023-02-15T13:40:12;36.35;;;18.05;;
52368;SDS011;38298;50.346;3.526;2023-02-15T13:47:44;34.65;;;18.00;;
52368;SDS011;38298;50.346;3.526;2023-02-15T13:50:19;35.30;;;18.00;;
52368;SDS011;38298;50.346;3.526;2023-02-15T13:53:08;34.97;;;18.67;;
52368;SDS011;38298;50.346;3.526;2023-02-15T14:01:04;38.40;;;19.02;;
52368;SDS011;38298;50.346;3.526;2023-02-15T14:08:41;37.30;;;18.40;;
52368;SDS011;38298;50.346;3.526;2023-02-15T14:13:59;37.40;;;19.17;;
52368;SDS011;38298;50.346;3.526;2023-02-15T14:21:31;37.45;;;18.23;;
52368;SDS011;38298;50.346;3.526;2023-02-15T14:24:18;35.58;;;17.50;;
52368;SDS011;38298;50.346;3.526;2023-02-15T14:26:54;33.03;;;17.42;;
52368;SDS011;38298;50.346;3.526;2023-02-15T14:29:28;36.88;;;17.67;;
52368;SDS011;38298;50.346;3.526;2023-02-15T14:31:57;31.27;;;16.58;;
52368;SDS011;38298;50.346;3.526;2023-02-15T14:34:27;36.77;;;16.73;;
52368;SDS011;38298;50.346;3.526;2023-02-15T14:36:56;32.13;;;17.45;;
52368;SDS011;38298;50.346;3.526;2023-02-15T14:42:24;33.13;;;17.73;;
52368;SDS011;38298;50.346;3.526;2023-02-15T14:44:57;30.13;;;17.42;;
52368;SDS011;38298;50.346;3.526;2023-02-15T14:47:26;30.17;;;16.73;;
52368;SDS011;38298;50.346;3.526;2023-02-15T14:49:55;32.42;;;18.55;;
52368;SDS011;38298;50.346;3.526;2023-02-15T14:52:21;27.13;;;15.98;;
52368;SDS011;38298;50.346;3.526;2023-02-15T15:02:27;33.17;;;18.02;;
52368;SDS011;38298;50.346;3.526;2023-02-15T15:04:59;37.20;;;19.13;;
52368;SDS011;38298;50.346;3.526;2023-02-15T15:07:27;31.98;;;16.95;;
52368;SDS011;38298;50.346;3.526;2023-02-15T15:09:58;35.00;;;19.25;;
52368;SDS011;38298;50.346;3.526;2023-02-15T15:14:52;36.33;;;18.95;;
52368;SDS011;38298;50.346;3.526;2023-02-15T15:22:37;39.88;;;20.35;;
52368;SDS011;38298;50.346;3.526;2023-02-15T15:25:39;38.60;;;19.92;;
52368;SDS011;38298;50.346;3.526;2023-02-15T15:27:53;44.03;;;21.27;;
52368;SDS011;38298;50.346;3.526;2023-02-15T15:32:57;37.92;;;20.23;;
52368;SDS011;38298;50.346;3.526;2023-02-15T15:48:49;46.92;;;22.70;;
52368;SDS011;38298;50.346;3.526;2023-02-15T15:59:47;47.63;;;22.48;;
52368;SDS011;38298;50.346;3.526;2023-02-15T16:02:14;49.65;;;21.58;;
52368;SDS011;38298;50.346;3.526;2023-02-15T16:04:41;44.20;;;21.77;;
52368;SDS011;38298;50.346;3.526;2023-02-15T16:09:39;46.55;;;22.48;;
52368;SDS011;38298;50.346;3.526;2023-02-15T16:12:10;52.28;;;23.67;;
52368;SDS011;38298;50.346;3.526;2023-02-15T16:14:39;48.28;;;23.80;;
52368;SDS011;38298;50.346;3.526;2023-02-15T16:17:13;45.92;;;21.65;;
52368;SDS011;38298;50.346;3.526;2023-02-15T16:19:41;51.22;;;23.88;;
52368;SDS011;38298;50.346;3.526;2023-02-15T16:22:12;53.78;;;23.27;;
52368;SDS011;38298;50.346;3.526;2023-02-15T16:27:33;48.83;;;21.85;;
52368;SDS011;38298;50.346;3.526;2023-02-15T16:32:44;51.35;;;23.00;;
52368;SDS011;38298;50.346;3.526;2023-02-15T16:35:15;47.55;;;22.90;;
52368;SDS011;38298;50.346;3.526;2023-02-15T16:37:41;50.42;;;20.33;;
52368;SDS011;38298;50.346;3.526;2023-02-15T16:42:50;51.95;;;23.63;;
52368;SDS011;38298;50.346;3.526;2023-02-15T16:45:17;52.80;;;22.98;;
52368;SDS011;38298;50.346;3.526;2023-02-15T16:47:45;49.40;;;22.77;;
52368;SDS011;38298;50.346;3.526;2023-02-15T16:50:19;54.90;;;22.65;;
52368;SDS011;38298;50.346;3.526;2023-02-15T16:52:45;46.35;;;21.80;;
52368;SDS011;38298;50.346;3.526;2023-02-15T16:55:19;47.35;;;21.95;;
52368;SDS011;38298;50.346;3.526;2023-02-15T16:57:46;44.60;;;20.23;;
52368;SDS011;38298;50.346;3.526;2023-02-15T17:00:20;46.13;;;22.08;;
52368;SDS011;38298;50.346;3.526;2023-02-15T17:05:20;43.63;;;20.85;;
52368;SDS011;38298;50.346;3.526;2023-02-15T17:10:36;45.08;;;21.77;;
52368;SDS011;38298;50.346;3.526;2023-02-15T17:13:10;48.72;;;22.15;;
52368;SDS011;38298;50.346;3.526;2023-02-15T17:20:32;52.90;;;22.60;;
52368;SDS011;38298;50.346;3.526;2023-02-15T17:23:00;49.42;;;23.65;;
52368;SDS011;38298;50.346;3.526;2023-02-15T17:25:30;52.60;;;22.58;;
52368;SDS011;38298;50.346;3.526;2023-02-15T17:27:57;47.75;;;22.08;;
52368;SDS011;38298;50.346;3.526;2023-02-15T17:30:26;49.47;;;22.95;;
52368;SDS011;38298;50.346;3.526;2023-02-15T17:32:54;47.95;;;22.88;;
52368;SDS011;38298;50.346;3.526;2023-02-15T17:37:47;45.85;;;22.45;;
52368;SDS011;38298;50.346;3.526;2023-02-15T17:40:18;49.35;;;22.52;;
52368;SDS011;38298;50.346;3.526;2023-02-15T17:42:45;51.70;;;22.95;;
52368;SDS011;38298;50.346;3.526;2023-02-15T17:45:11;47.30;;;22.98;;
52368;SDS011;38298;50.346;3.526;2023-02-15T17:47:37;51.60;;;23.80;;
52368;SDS011;38298;50.346;3.526;2023-02-15T17:50:04;50.15;;;23.17;;
52368;SDS011;38298;50.346;3.526;2023-02-15T17:52:31;47.28;;;23.02;;
52368;SDS011;38298;50.346;3.526;2023-02-15T17:54:57;54.03;;;22.95;;
52368;SDS011;38298;50.346;3.526;2023-02-15T17:57:42;50.42;;;22.65;;